createdAt,value
2022-12-23T00:01:02.329Z,75.70
2022-12-23T00:03:29.916Z,75.70
2022-12-23T00:05:57.420Z,75.90
2022-12-23T00:08:24.873Z,75.90
2022-12-23T00:10:52.216Z,76.10
2022-12-23T00:13:38.278Z,76.10
2022-12-23T00:16:12.951Z,76.20
2022-12-23T00:18:40.644Z,76.40
2022-12-23T00:21:14.138Z,76.40
2022-12-23T00:23:44.355Z,76.60
2022-12-23T00:26:25.714Z,76.50
2022-12-23T00:28:53.119Z,76.60
2022-12-23T00:31:23.249Z,76.50
2022-12-23T00:33:51.265Z,76.50
2022-12-23T00:36:28.931Z,76.60
2022-12-23T00:39:16.257Z,76.60
2022-12-23T00:42:04.697Z,76.50
2022-12-23T00:44:32.040Z,76.50
2022-12-23T00:46:59.261Z,76.60
2022-12-23T00:49:45.010Z,76.70
2022-12-23T00:52:14.222Z,76.70
2022-12-23T00:54:41.403Z,76.60
2022-12-23T00:57:08.704Z,76.70
2022-12-23T00:59:35.938Z,76.70
2022-12-23T01:02:22.123Z,76.60
2022-12-23T01:05:08.170Z,76.60
2022-12-23T01:07:35.403Z,76.50
2022-12-23T01:10:02.592Z,76.50
2022-12-23T01:12:29.876Z,76.50
2022-12-23T01:14:57.114Z,76.50
2022-12-23T01:17:24.505Z,76.50
2022-12-23T01:19:52.069Z,76.50
2022-12-23T01:22:19.390Z,76.40
2022-12-23T01:24:46.601Z,76.40
2022-12-23T01:27:13.786Z,76.30
2022-12-23T01:29:41.024Z,76.30
2022-12-23T01:32:08.293Z,76.30
2022-12-23T01:34:37.502Z,76.20
2022-12-23T01:37:05.612Z,76.20
2022-12-23T01:39:32.937Z,76.20
2022-12-23T01:42:19.012Z,76.10
2022-12-23T01:44:56.507Z,76.10
2022-12-23T01:47:49.377Z,76.10
2022-12-23T01:50:27.461Z,76.20
2022-12-23T01:53:12.492Z,76.20
2022-12-23T01:55:49.987Z,76.00
2022-12-23T01:58:23.399Z,75.90
2022-12-23T02:01:13.017Z,76.10
2022-12-23T02:03:43.514Z,76.10
2022-12-23T02:06:50.430Z,76.00
2022-12-23T02:09:25.368Z,76.00
2022-12-23T02:12:14.186Z,76.10
2022-12-23T02:15:44.950Z,76.00
2022-12-23T02:18:21.147Z,76.00
2022-12-23T02:21:24.565Z,76.00
2022-12-23T02:24:42.948Z,75.90
2022-12-23T02:27:26.921Z,75.90
2022-12-23T02:30:46.176Z,76.00
2022-12-23T02:33:28.624Z,75.90
2022-12-23T02:36:20.282Z,76.00
2022-12-23T02:39:15.782Z,76.00
2022-12-23T02:42:00.445Z,75.90
2022-12-23T02:44:37.910Z,75.90
2022-12-23T02:47:11.505Z,75.70
2022-12-23T02:49:45.724Z,76.00
2022-12-23T02:52:16.150Z,76.00
2022-12-23T02:54:50.413Z,76.00
2022-12-23T02:57:22.648Z,75.90
2022-12-23T02:59:51.341Z,75.90
2022-12-23T03:02:19.460Z,75.80
2022-12-23T03:04:46.757Z,75.80
2022-12-23T03:07:25.914Z,75.70
2022-12-23T03:10:13.737Z,75.90
2022-12-23T03:13:04.970Z,75.90
2022-12-23T03:16:23.173Z,75.90
2022-12-23T03:19:09.046Z,76.10
2022-12-23T03:21:54.499Z,76.10
2022-12-23T03:24:45.733Z,76.20
2022-12-23T03:27:35.517Z,76.40
2022-12-23T03:30:11.714Z,76.30
2022-12-23T03:33:01.441Z,76.30
2022-12-23T03:35:38.345Z,76.40
2022-12-23T03:38:05.528Z,76.30
2022-12-23T03:40:42.688Z,76.20
2022-12-23T03:43:20.094Z,76.20
2022-12-23T03:45:56.147Z,76.10
2022-12-23T03:48:26.433Z,76.10
2022-12-23T03:50:59.203Z,75.90
2022-12-23T03:53:32.677Z,76.00
2022-12-23T03:56:08.160Z,76.00
2022-12-23T03:58:58.943Z,76.00
2022-12-23T04:01:40.523Z,76.00
2022-12-23T04:04:20.650Z,76.00
2022-12-23T04:06:59.543Z,76.00
2022-12-23T04:09:27.692Z,76.00
2022-12-23T04:11:55.392Z,75.90
2022-12-23T04:14:22.596Z,76.00
2022-12-23T04:16:54.046Z,76.10
2022-12-23T04:19:21.308Z,76.10
2022-12-23T04:21:48.560Z,76.20
2022-12-23T04:24:15.786Z,76.10
2022-12-23T04:26:42.896Z,76.20
2022-12-23T04:29:10.189Z,76.10
2022-12-23T04:31:37.348Z,76.20
2022-12-23T04:34:04.596Z,76.20
2022-12-23T04:36:31.898Z,76.20
2022-12-23T04:38:59.074Z,76.20
2022-12-23T04:41:26.361Z,76.20
2022-12-23T04:43:53.685Z,76.20
2022-12-23T04:46:21.082Z,76.30
2022-12-23T04:48:48.457Z,76.30
2022-12-23T04:51:15.685Z,76.40
2022-12-23T04:53:42.928Z,76.50
2022-12-23T04:56:10.058Z,76.60
2022-12-23T04:58:37.242Z,76.90
2022-12-23T05:01:09.907Z,76.90
2022-12-23T05:03:38.098Z,76.90
2022-12-23T05:06:05.842Z,77.00
2022-12-23T05:08:33.049Z,77.10
2022-12-23T05:11:00.344Z,77.00
2022-12-23T05:13:27.555Z,77.00
2022-12-23T05:15:55.162Z,77.00
2022-12-23T05:18:22.755Z,76.90
2022-12-23T05:20:50.041Z,76.90
2022-12-23T05:23:17.235Z,76.80
2022-12-23T05:25:51.787Z,76.80
2022-12-23T05:28:21.473Z,76.80
2022-12-23T05:30:48.763Z,76.60
2022-12-23T05:33:16.104Z,76.60
2022-12-23T05:35:43.370Z,76.50
2022-12-23T05:38:10.587Z,76.50
2022-12-23T05:40:37.862Z,76.40
2022-12-23T05:43:05.504Z,76.40
2022-12-23T05:45:35.984Z,76.30
2022-12-23T05:48:03.418Z,76.30
2022-12-23T05:50:30.736Z,76.30
2022-12-23T05:53:02.125Z,76.30
2022-12-23T05:55:29.368Z,76.20
2022-12-23T05:57:56.621Z,76.20
2022-12-23T06:00:23.930Z,76.20
2022-12-23T06:02:53.817Z,76.10
2022-12-23T06:05:21.999Z,76.20
2022-12-23T06:07:49.717Z,76.20
2022-12-23T06:10:16.916Z,76.20
2022-12-23T06:12:44.301Z,76.20
2022-12-23T06:15:11.846Z,76.20
2022-12-23T06:17:39.073Z,76.30
2022-12-23T06:20:11.220Z,76.30
2022-12-23T06:22:43.615Z,76.30
2022-12-23T06:25:12.984Z,76.40
2022-12-23T06:27:42.431Z,76.40
2022-12-23T06:30:11.292Z,76.40
2022-12-23T06:32:39.032Z,76.40
2022-12-23T06:35:08.023Z,76.40
2022-12-23T06:37:35.332Z,76.50
2022-12-23T06:40:02.722Z,76.60
2022-12-23T06:42:30.131Z,76.50
2022-12-23T06:44:57.387Z,76.60
2022-12-23T06:47:24.593Z,76.60
2022-12-23T06:49:51.782Z,76.60
2022-12-23T06:52:22.063Z,76.60
2022-12-23T06:54:49.402Z,76.70
2022-12-23T06:57:16.633Z,76.70
2022-12-23T06:59:43.907Z,76.70
2022-12-23T07:02:12.169Z,76.90
2022-12-23T07:04:39.510Z,76.90
2022-12-23T07:07:06.736Z,77.00
2022-12-23T07:09:33.913Z,77.00
2022-12-23T07:12:03.857Z,77.00
2022-12-23T07:14:31.163Z,77.10
2022-12-23T07:16:58.558Z,77.10
2022-12-23T07:19:25.788Z,77.00
2022-12-23T07:21:53.086Z,77.00
2022-12-23T07:24:20.295Z,76.90
2022-12-23T07:26:47.418Z,77.00
2022-12-23T07:29:14.685Z,76.90
2022-12-23T07:31:42.174Z,77.00
2022-12-23T07:34:09.840Z,77.40
2022-12-23T07:36:37.101Z,77.30
2022-12-23T07:39:04.904Z,77.30
2022-12-23T07:41:32.118Z,77.20
2022-12-23T07:44:07.425Z,77.10
2022-12-23T07:46:35.886Z,77.20
2022-12-23T07:49:03.241Z,77.20
2022-12-23T07:51:30.595Z,77.30
2022-12-23T07:53:58.237Z,77.40
2022-12-23T07:56:25.497Z,77.60
2022-12-23T07:58:58.834Z,77.50
2022-12-23T08:01:26.462Z,77.60
2022-12-23T08:03:54.323Z,77.60
2022-12-23T08:06:24.371Z,77.50
2022-12-23T08:08:51.647Z,77.50
2022-12-23T08:11:18.938Z,77.60
2022-12-23T08:13:46.389Z,77.80
2022-12-23T08:16:13.679Z,77.70
2022-12-23T08:18:41.821Z,77.70
2022-12-23T08:21:16.160Z,77.80
2022-12-23T08:23:43.690Z,77.90
2022-12-23T08:26:16.030Z,77.40
2022-12-23T08:28:43.677Z,77.70
2022-12-23T08:31:21.238Z,77.50
2022-12-23T08:33:53.172Z,77.70
2022-12-23T08:36:34.366Z,77.50
2022-12-23T08:39:08.235Z,77.50
2022-12-23T08:41:44.541Z,77.30
2022-12-23T08:44:11.802Z,77.50
2022-12-23T08:46:39.131Z,77.40
2022-12-23T08:49:06.702Z,77.30
2022-12-23T08:51:34.504Z,77.30
2022-12-23T08:54:01.873Z,77.30
2022-12-23T08:56:35.833Z,77.30
2022-12-23T08:59:03.314Z,77.30
2022-12-23T09:01:32.514Z,77.30
2022-12-23T09:04:06.015Z,77.30
2022-12-23T09:06:40.764Z,77.20
2022-12-23T09:09:09.293Z,77.20
2022-12-23T09:11:36.679Z,77.20
2022-12-23T09:14:04.559Z,77.30
2022-12-23T09:16:32.046Z,77.30
2022-12-23T09:19:00.703Z,77.30
2022-12-23T09:21:27.941Z,77.20
2022-12-23T09:23:55.218Z,77.10
2022-12-23T09:26:25.058Z,77.00
2022-12-23T09:28:52.332Z,77.00
2022-12-23T09:31:19.982Z,76.70
2022-12-23T09:33:49.166Z,76.50
2022-12-23T09:36:16.779Z,76.70
2022-12-23T09:38:44.123Z,76.70
2022-12-23T09:41:35.502Z,76.60
2022-12-23T09:44:38.890Z,76.50
2022-12-23T09:47:10.959Z,76.40
2022-12-23T09:49:41.494Z,76.30
2022-12-23T09:52:09.473Z,76.20
2022-12-23T09:54:49.519Z,76.20
2022-12-23T09:57:31.052Z,76.20
2022-12-23T10:00:10.337Z,76.20
2022-12-23T10:03:15.926Z,76.00
2022-12-23T10:06:15.507Z,76.10
2022-12-23T10:08:50.047Z,76.10
2022-12-23T10:11:23.800Z,76.20
2022-12-23T10:14:04.842Z,76.20
2022-12-23T10:16:45.214Z,76.10
2022-12-23T10:19:25.062Z,76.10
2022-12-23T10:21:58.734Z,76.00
2022-12-23T10:24:31.036Z,75.90
2022-12-23T10:27:04.801Z,75.90
2022-12-23T10:29:33.075Z,75.80
2022-12-23T10:32:46.182Z,75.60
2022-12-23T10:35:31.404Z,75.80
2022-12-23T10:38:04.211Z,75.80
2022-12-23T10:41:14.317Z,75.80
2022-12-23T10:44:36.755Z,75.70
2022-12-23T10:47:48.291Z,75.90
2022-12-23T10:50:55.166Z,76.10
2022-12-23T10:53:41.069Z,76.10
2022-12-23T10:56:08.771Z,76.10
2022-12-23T10:58:38.449Z,76.00
2022-12-23T11:01:15.053Z,76.00
2022-12-23T11:04:19.492Z,75.90
2022-12-23T11:08:39.136Z,75.90
2022-12-23T11:11:01.499Z,76.10
2022-12-23T11:13:36.264Z,75.90
2022-12-23T11:16:27.036Z,76.00
2022-12-23T11:19:03.631Z,75.90
2022-12-23T11:21:31.839Z,75.90
2022-12-23T11:24:16.671Z,75.90
2022-12-23T11:26:50.757Z,75.80
2022-12-23T11:29:31.602Z,75.90
2022-12-23T11:31:59.074Z,75.80
2022-12-23T11:34:26.659Z,75.80
2022-12-23T11:37:05.214Z,75.80
2022-12-23T11:39:36.449Z,75.70
2022-12-23T11:42:15.612Z,75.80
2022-12-23T11:44:46.661Z,75.80
2022-12-23T11:47:23.085Z,75.80
2022-12-23T11:49:58.461Z,75.80
2022-12-23T11:52:32.713Z,75.70
2022-12-23T11:55:04.796Z,75.80
2022-12-23T11:57:43.280Z,75.50
2022-12-23T12:00:21.048Z,75.80
2022-12-23T12:02:51.595Z,75.70
2022-12-23T12:05:30.961Z,75.70
2022-12-23T12:08:13.976Z,75.70
2022-12-23T12:10:41.288Z,75.80
2022-12-23T12:13:25.450Z,75.70
2022-12-23T12:16:12.227Z,75.70
2022-12-23T12:18:40.075Z,75.90
2022-12-23T12:21:11.189Z,75.90
2022-12-23T12:23:48.064Z,75.90
2022-12-23T12:26:23.222Z,75.80
2022-12-23T12:28:56.848Z,75.90
2022-12-23T12:31:37.479Z,75.90
2022-12-23T12:34:16.469Z,76.00
2022-12-23T12:37:04.446Z,75.70
2022-12-23T12:39:42.317Z,75.80
2022-12-23T12:42:36.689Z,75.80
2022-12-23T12:45:32.778Z,76.00
2022-12-23T12:48:24.038Z,76.00
2022-12-23T12:51:03.087Z,76.10
2022-12-23T12:53:30.462Z,76.00
2022-12-23T12:56:12.352Z,76.00
2022-12-23T12:58:39.795Z,76.00
2022-12-23T13:01:17.920Z,76.00
2022-12-23T13:04:04.504Z,76.00
2022-12-23T13:06:56.664Z,76.00
2022-12-23T13:10:06.055Z,76.10
2022-12-23T13:12:59.764Z,76.20
2022-12-23T13:15:51.847Z,76.20
2022-12-23T13:18:55.198Z,76.20
2022-12-23T13:21:36.499Z,76.30
2022-12-23T13:24:46.593Z,76.20
2022-12-23T13:27:47.525Z,76.10
2022-12-23T13:30:20.159Z,76.30
2022-12-23T13:33:33.853Z,76.30
2022-12-23T13:36:32.760Z,76.30
2022-12-23T13:39:30.735Z,76.30
2022-12-23T13:42:04.616Z,76.20
2022-12-23T13:44:33.377Z,76.20
2022-12-23T13:47:22.353Z,76.10
2022-12-23T13:50:16.441Z,76.10
2022-12-23T13:53:15.295Z,76.00
2022-12-23T13:56:22.417Z,76.00
2022-12-23T13:58:49.866Z,75.90
2022-12-23T14:01:17.752Z,75.90
2022-12-23T14:03:45.410Z,75.90
2022-12-23T14:06:24.639Z,75.80
2022-12-23T14:08:52.896Z,75.80
2022-12-23T14:11:32.127Z,75.70
2022-12-23T14:14:04.058Z,75.80
2022-12-23T14:16:49.248Z,75.70
2022-12-23T14:19:31.695Z,75.70
2022-12-23T14:22:40.432Z,75.70
2022-12-23T14:25:43.434Z,75.70
2022-12-23T14:28:20.227Z,75.70
2022-12-23T14:30:48.063Z,75.70
2022-12-23T14:33:19.013Z,75.70
2022-12-23T14:35:47.165Z,75.80
2022-12-23T14:38:14.235Z,75.70
2022-12-23T14:40:50.463Z,75.70
2022-12-23T14:43:26.608Z,75.80
2022-12-23T14:46:00.941Z,75.90
2022-12-23T14:48:34.395Z,75.90
2022-12-23T14:51:40.063Z,75.90
2022-12-23T14:54:07.142Z,75.90
2022-12-23T14:56:40.584Z,75.90
2022-12-23T14:59:37.351Z,75.90
2022-12-23T15:02:18.221Z,75.90
2022-12-23T15:04:49.172Z,75.80
2022-12-23T15:07:32.994Z,75.90
2022-12-23T15:10:02.265Z,75.80
2022-12-23T15:12:36.337Z,75.80
2022-12-23T15:15:21.950Z,75.90
2022-12-23T15:17:49.292Z,75.80
2022-12-23T15:20:19.951Z,75.80
2022-12-23T15:22:47.596Z,75.70
2022-12-23T15:25:29.193Z,75.70
2022-12-23T15:28:01.501Z,75.60
2022-12-23T15:30:37.573Z,75.60
2022-12-23T15:33:27.844Z,75.60
2022-12-23T15:35:55.336Z,75.60
2022-12-23T15:38:22.748Z,75.50
2022-12-23T15:41:05.188Z,75.50
2022-12-23T15:43:32.841Z,75.60
2022-12-23T15:46:17.074Z,75.50
2022-12-23T15:48:44.386Z,75.50
2022-12-23T15:51:49.992Z,75.50
2022-12-23T15:54:26.371Z,75.50
2022-12-23T15:56:53.901Z,75.60
2022-12-23T15:59:25.112Z,75.50
2022-12-23T16:01:52.433Z,75.50
2022-12-23T16:04:27.349Z,75.50
2022-12-23T16:06:55.844Z,75.50
2022-12-23T16:09:30.103Z,75.50
2022-12-23T16:12:00.548Z,75.60
2022-12-23T16:14:30.847Z,75.50
2022-12-23T16:17:12.604Z,75.70
2022-12-23T16:19:54.086Z,75.80
2022-12-23T16:22:27.939Z,75.70
2022-12-23T16:25:22.386Z,75.60
2022-12-23T16:27:55.876Z,75.40
2022-12-23T16:30:36.164Z,75.40
2022-12-23T16:33:26.223Z,75.40
2022-12-23T16:35:54.579Z,75.40
2022-12-23T16:38:26.076Z,75.30
2022-12-23T16:40:55.036Z,75.30
2022-12-23T16:43:24.280Z,75.20
2022-12-23T16:45:54.767Z,75.30
2022-12-23T16:48:42.067Z,75.30
2022-12-23T16:51:14.005Z,75.10
2022-12-23T16:53:41.261Z,75.30
2022-12-23T16:56:23.552Z,75.30
2022-12-23T16:58:50.848Z,75.40
2022-12-23T17:01:23.179Z,75.40
2022-12-23T17:03:50.952Z,75.40
2022-12-23T17:06:20.618Z,75.40
2022-12-23T17:08:47.980Z,75.40
2022-12-23T17:11:23.047Z,75.30
2022-12-23T17:13:50.472Z,75.20
2022-12-23T17:16:20.132Z,75.20
2022-12-23T17:18:50.802Z,75.10
2022-12-23T17:21:23.861Z,74.90
2022-12-23T17:23:52.538Z,74.90
2022-12-23T17:26:19.980Z,74.90
2022-12-23T17:28:47.318Z,75.00
2022-12-23T17:31:27.052Z,75.10
2022-12-23T17:33:54.681Z,75.10
2022-12-23T17:36:22.213Z,75.00
2022-12-23T17:38:49.533Z,75.00
2022-12-23T17:41:28.890Z,74.90
2022-12-23T17:44:00.867Z,75.00
2022-12-23T17:46:29.112Z,75.00
2022-12-23T17:48:59.434Z,74.80
2022-12-23T17:51:27.235Z,74.90
2022-12-23T17:53:57.685Z,74.90
2022-12-23T17:56:27.580Z,75.00
2022-12-23T17:58:54.920Z,75.00
2022-12-23T18:01:26.415Z,75.10
2022-12-23T18:03:54.797Z,75.00
2022-12-23T18:06:22.930Z,75.00
2022-12-23T18:08:50.422Z,75.00
2022-12-23T18:11:28.986Z,74.90
2022-12-23T18:13:56.183Z,75.00
2022-12-23T18:16:23.442Z,75.00
2022-12-23T18:18:53.748Z,75.00
2022-12-23T18:21:23.841Z,75.00
2022-12-23T18:23:52.121Z,75.10
2022-12-23T18:26:19.250Z,75.10
2022-12-23T18:28:46.621Z,75.00
2022-12-23T18:31:19.605Z,75.10
2022-12-23T18:33:47.083Z,75.20
2022-12-23T18:36:31.366Z,75.20
2022-12-23T18:38:58.733Z,75.30
2022-12-23T18:41:26.671Z,75.30
2022-12-23T18:43:53.984Z,75.50
2022-12-23T18:46:21.442Z,75.50
2022-12-23T18:48:48.817Z,75.50
2022-12-23T18:51:20.863Z,75.50
2022-12-23T18:53:48.274Z,75.50
2022-12-23T18:56:21.025Z,75.50
2022-12-23T18:58:48.469Z,75.50
2022-12-23T19:01:16.695Z,75.40
2022-12-23T19:03:44.327Z,75.40
2022-12-23T19:06:13.859Z,75.30
2022-12-23T19:08:44.274Z,75.30
2022-12-23T19:11:19.440Z,75.30
2022-12-23T19:13:46.870Z,75.40
2022-12-23T19:16:15.722Z,75.30
2022-12-23T19:18:43.473Z,75.30
2022-12-23T19:21:10.711Z,75.20
2022-12-23T19:23:39.501Z,75.20
2022-12-23T19:26:06.888Z,75.20
2022-12-23T19:28:34.294Z,75.10
2022-12-23T19:31:06.222Z,75.10
2022-12-23T19:33:36.421Z,75.00
2022-12-23T19:36:10.100Z,75.00
2022-12-23T19:38:37.561Z,75.00
2022-12-23T19:41:06.557Z,74.90
2022-12-23T19:43:35.294Z,74.90
2022-12-23T19:46:05.528Z,74.90
2022-12-23T19:48:32.825Z,75.00
2022-12-23T19:51:11.625Z,74.90
2022-12-23T19:53:40.094Z,75.00
2022-12-23T19:56:15.461Z,75.10
2022-12-23T19:58:43.850Z,75.10
2022-12-23T20:01:17.613Z,75.10
2022-12-23T20:03:46.346Z,75.10
2022-12-23T20:06:19.940Z,75.00
2022-12-23T20:08:48.309Z,75.10
2022-12-23T20:11:18.721Z,75.10
2022-12-23T20:13:52.841Z,75.10
2022-12-23T20:16:20.286Z,75.20
2022-12-23T20:18:47.612Z,75.20
2022-12-23T20:21:14.974Z,75.30
2022-12-23T20:24:57.837Z,75.40
2022-12-23T20:37:38.086Z,75.80
2022-12-23T20:49:17.557Z,76.40
2022-12-23T20:51:54.879Z,76.50
2022-12-23T20:54:35.500Z,76.60
2022-12-23T20:57:13.324Z,76.70
2022-12-23T20:59:45.450Z,76.70
2022-12-23T21:02:14.003Z,76.60
2022-12-23T21:14:09.571Z,76.70
2022-12-23T21:17:30.571Z,76.80
2022-12-23T21:21:12.411Z,77.00
2022-12-23T21:24:16.794Z,77.20
2022-12-23T21:31:27.223Z,77.20
2022-12-23T21:39:42.544Z,77.20
2022-12-23T21:43:18.869Z,77.30
2022-12-23T21:46:28.671Z,77.60
2022-12-23T21:53:31.868Z,77.70
2022-12-23T22:04:51.518Z,77.70
2022-12-23T22:19:08.794Z,77.90
2022-12-23T22:21:55.571Z,78.00
2022-12-23T22:26:17.493Z,78.20
2022-12-23T22:38:13.183Z,78.90
2022-12-23T22:49:25.558Z,79.20
2022-12-23T22:52:22.969Z,79.20
2022-12-23T22:55:31.125Z,79.30
2022-12-23T22:58:11.435Z,79.20
2022-12-23T23:01:43.812Z,79.40
2022-12-23T23:08:48.940Z,79.50
2022-12-23T23:11:30.532Z,79.60
2022-12-23T23:14:54.864Z,79.80
2022-12-23T23:17:50.021Z,79.70
2022-12-23T23:25:00.383Z,79.70
2022-12-23T23:27:29.862Z,79.80
2022-12-23T23:29:57.109Z,79.40
2022-12-23T23:32:24.395Z,79.80
2022-12-23T23:34:51.616Z,79.90
2022-12-23T23:37:18.914Z,79.90
2022-12-23T23:39:46.107Z,80.00
2022-12-23T23:42:16.804Z,80.00
2022-12-23T23:44:44.092Z,80.10
2022-12-23T23:47:11.263Z,80.00
2022-12-23T23:49:38.449Z,80.00
2022-12-23T23:52:05.638Z,80.10
2022-12-23T23:54:32.793Z,80.00
2022-12-23T23:57:00.808Z,80.00
2022-12-23T23:59:28.611Z,80.00
